Time;durP1;ratioP1;P1;durP2;ratioP2;P2;SDS_P1;SDS_P2;PMS_P1;PMS_P2;Temp;Humidity;BMP_temperature;BMP_pressure;BME280_temperature;BME280_humidity;BME280_pressure;Samples;Min_cycle;Max_cycle;Signal;HPM_P1;HPM_P2
2023/05/14 00:02:17;;;;;;;27.42;16.60;;;;;;;13.12;100.00;102154.41;4988227;28;20109;-63
2023/05/14 00:04:42;;;;;;;22.92;15.63;;;;;;;13.11;100.00;102151.78;4987676;28;20684;-63
2023/05/14 00:07:07;;;;;;;24.85;15.95;;;;;;;13.10;100.00;102156.19;4988561;28;20038;-62
2023/05/14 00:09:34;;;;;;;20.98;14.85;;;;;;;13.06;100.00;102149.25;4988697;28;20030;-62
2023/05/14 00:11:59;;;;;;;24.90;14.60;;;;;;;13.07;100.00;102145.72;4986912;28;20053;-62
2023/05/14 00:14:25;;;;;;;22.98;15.52;;;;;;;13.06;100.00;102148.41;4987673;28;20065;-62
2023/05/14 00:16:50;;;;;;;23.33;15.68;;;;;;;13.00;100.00;102144.09;4987723;28;20055;-62
2023/05/14 00:19:15;;;;;;;24.42;14.88;;;;;;;12.94;100.00;102136.31;4985146;28;20026;-62
2023/05/14 00:21:41;;;;;;;24.45;15.00;;;;;;;12.99;100.00;102142.34;4987479;28;20029;-61
2023/05/14 00:24:06;;;;;;;24.92;16.42;;;;;;;12.99;100.00;102137.06;4987236;28;20032;-64
2023/05/14 00:26:31;;;;;;;26.45;15.25;;;;;;;13.00;100.00;102136.16;4987992;28;20638;-62
2023/05/14 00:28:57;;;;;;;26.58;14.50;;;;;;;13.03;100.00;102136.09;4986997;28;20026;-61
2023/05/14 00:31:22;;;;;;;31.17;15.38;;;;;;;13.00;100.00;102126.44;4987590;28;20081;-62
2023/05/14 00:33:47;;;;;;;22.13;14.88;;;;;;;13.00;100.00;102128.22;4987561;28;20030;-61
2023/05/14 00:36:13;;;;;;;23.95;14.32;;;;;;;12.95;100.00;102127.47;5001882;28;20037;-60
2023/05/14 00:38:38;;;;;;;20.30;14.88;;;;;;;12.83;100.00;102118.91;4987895;28;20051;-62
2023/05/14 00:41:03;;;;;;;24.10;13.93;;;;;;;12.71;100.00;102114.78;4999616;28;20025;-62
2023/05/14 00:43:30;;;;;;;22.98;16.15;;;;;;;12.70;100.00;102117.47;5008098;28;20109;-62
2023/05/14 00:45:56;;;;;;;24.50;14.18;;;;;;;12.71;100.00;102113.91;4992841;28;20126;-63
2023/05/14 00:48:22;;;;;;;22.20;15.25;;;;;;;12.73;100.00;102114.72;4987536;28;20156;-61
2023/05/14 00:50:48;;;;;;;22.25;14.77;;;;;;;12.73;100.00;102114.72;4985857;28;20027;-63
2023/05/14 00:53:14;;;;;;;25.80;15.10;;;;;;;12.80;100.00;102112.81;4987402;28;20014;-62
2023/05/14 00:55:40;;;;;;;25.67;14.40;;;;;;;12.77;100.00;102105.84;4986896;28;20110;-63
2023/05/14 00:58:10;;;;;;;21.27;14.52;;;;;;;12.67;100.00;102117.53;4987817;28;20461;-62
2023/05/14 01:00:36;;;;;;;24.73;15.40;;;;;;;12.50;100.00;102114.31;4986762;28;20030;-62
2023/05/14 01:03:06;;;;;;;25.48;16.38;;;;;;;12.50;100.00;102116.13;4987590;28;20026;-62
2023/05/14 01:05:52;;;;;;;29.23;17.00;;;;;;;12.41;100.00;102111.91;4987324;28;20034;-62
2023/05/14 01:08:27;;;;;;;29.73;17.50;;;;;;;12.30;100.00;102117.41;5044136;23;20035;-62
2023/05/14 01:10:59;;;;;;;31.90;17.45;;;;;;;12.25;100.00;102111.31;4967638;28;20149;-62
2023/05/14 01:13:45;;;;;;;31.67;18.85;;;;;;;12.26;100.00;102115.72;4987188;28;20073;-62
2023/05/14 01:16:13;;;;;;;29.33;17.98;;;;;;;12.18;100.00;102117.63;4986424;28;20038;-62
2023/05/14 01:18:40;;;;;;;28.67;19.48;;;;;;;12.04;100.00;102113.47;4986537;28;20038;-60
2023/05/14 01:21:17;;;;;;;28.67;18.92;;;;;;;11.93;100.00;102118.09;4987285;28;20049;-61
2023/05/14 01:23:43;;;;;;;30.50;19.65;;;;;;;11.86;100.00;102107.66;5001007;28;20121;-62
2023/05/14 01:26:08;;;;;;;33.67;20.30;;;;;;;11.84;100.00;102117.38;4987304;28;20129;-62
2023/05/14 01:28:34;;;;;;;33.38;20.13;;;;;;;11.83;100.00;102112.97;4987028;28;20042;-61
2023/05/14 01:31:11;;;;;;;34.15;20.67;;;;;;;11.75;100.00;102121.03;4984637;28;20026;-62
2023/05/14 01:33:36;;;;;;;28.75;20.10;;;;;;;11.71;100.00;102107.94;4992300;28;20076;-62
2023/05/14 01:36:02;;;;;;;32.20;18.90;;;;;;;11.62;100.00;102115.13;4982372;28;20035;-62
2023/05/14 01:38:32;;;;;;;31.25;19.83;;;;;;;11.61;100.00;102115.16;4966165;28;20031;-62
2023/05/14 01:40:58;;;;;;;35.53;20.80;;;;;;;11.59;100.00;102109.91;4965059;28;20033;-61
2023/05/14 01:43:24;;;;;;;32.90;19.65;;;;;;;11.56;100.00;102109.09;4973482;28;20031;-62
2023/05/14 01:45:49;;;;;;;29.95;19.52;;;;;;;11.45;100.00;102104.00;4981955;28;20090;-62
2023/05/14 01:48:15;;;;;;;32.70;19.48;;;;;;;11.40;100.00;102106.72;4965295;28;20491;-64
2023/05/14 01:50:40;;;;;;;27.92;19.27;;;;;;;11.34;100.00;102099.78;4982676;28;20085;-61
2023/05/14 01:53:06;;;;;;;27.10;19.35;;;;;;;11.28;100.00;102091.94;4997027;28;20038;-61
2023/05/14 01:55:31;;;;;;;31.75;20.80;;;;;;;11.24;100.00;102092.91;4986070;28;20064;-61
2023/05/14 01:57:56;;;;;;;32.05;19.27;;;;;;;11.22;100.00;102092.06;4986029;28;20406;-62
2023/05/14 02:00:24;;;;;;;32.60;20.70;;;;;;;11.17;100.00;102086.84;4974554;28;20619;-62
2023/05/14 02:02:49;;;;;;;35.50;21.45;;;;;;;11.14;100.00;102086.03;4980277;28;20034;-61
2023/05/14 02:05:15;;;;;;;29.23;20.92;;;;;;;11.10;100.00;102078.19;4986875;28;20040;-61
2023/05/14 02:07:40;;;;;;;34.33;21.95;;;;;;;11.10;100.00;102069.38;4980922;28;20026;-61
2023/05/14 02:10:06;;;;;;;34.67;21.35;;;;;;;11.10;100.00;102078.19;4986992;28;20153;-63
2023/05/14 02:12:31;;;;;;;32.80;21.02;;;;;;;11.10;100.00;102072.03;5001299;28;20033;-62
2023/05/14 02:14:57;;;;;;;36.90;22.13;;;;;;;11.09;100.00;102075.56;4983200;28;20746;-61
2023/05/14 02:17:24;;;;;;;33.95;20.63;;;;;;;11.09;100.00;102079.09;4985780;28;20061;-62
2023/05/14 02:19:50;;;;;;;37.15;21.02;;;;;;;11.16;100.00;102086.88;4986395;28;20113;-63
2023/05/14 02:22:15;;;;;;;30.58;21.33;;;;;;;11.19;100.00;102087.69;4983734;28;20105;-62
2023/05/14 02:24:40;;;;;;;33.90;20.92;;;;;;;11.23;100.00;102083.25;4971282;28;20039;-60
2023/05/14 02:27:06;;;;;;;36.80;21.63;;;;;;;11.22;100.00;102079.75;4967049;28;20076;-61
2023/05/14 02:29:31;;;;;;;30.13;19.00;;;;;;;11.27;100.00;102081.44;4967292;28;20062;-62
2023/05/14 02:31:56;;;;;;;29.65;20.38;;;;;;;11.24;100.00;102080.59;4978984;28;20166;-62
2023/05/14 02:34:22;;;;;;;29.52;18.85;;;;;;;11.14;100.00;102080.78;4987073;28;20092;-62
2023/05/14 02:36:47;;;;;;;28.08;18.83;;;;;;;11.02;100.00;102074.81;4985164;28;20029;-62
2023/05/14 02:39:12;;;;;;;35.85;19.77;;;;;;;10.94;100.00;102084.59;4984107;28;20499;-61
2023/05/14 02:41:38;;;;;;;32.10;20.52;;;;;;;10.95;100.00;102078.41;4968168;28;20081;-62
2023/05/14 02:44:03;;;;;;;35.58;21.30;;;;;;;10.98;100.00;102081.00;4967177;28;20061;-62
2023/05/14 02:46:30;;;;;;;26.48;19.52;;;;;;;11.04;100.00;102072.13;4968393;28;20027;-62
2023/05/14 02:48:55;;;;;;;33.08;21.92;;;;;;;11.19;100.00;102071.00;4968974;28;20054;-62
2023/05/14 02:51:20;;;;;;;38.83;21.75;;;;;;;11.27;100.00;102069.13;4967851;28;20486;-61
2023/05/14 02:53:46;;;;;;;38.10;22.13;;;;;;;11.33;100.00;102069.00;4970410;28;20481;-62
2023/05/14 02:56:11;;;;;;;34.00;21.25;;;;;;;11.43;100.00;102066.19;4972033;28;20393;-62
2023/05/14 02:58:36;;;;;;;32.45;20.45;;;;;;;11.42;100.00;102067.09;4970622;28;20689;-62
2023/05/14 03:01:02;;;;;;;32.78;20.60;;;;;;;11.44;100.00;102057.41;4971002;28;20042;-62
2023/05/14 03:03:28;;;;;;;34.45;20.40;;;;;;;11.45;100.00;102053.84;4970863;28;20674;-62
2023/05/14 03:05:54;;;;;;;33.88;21.52;;;;;;;11.49;100.00;102068.72;4969523;28;20034;-62
2023/05/14 03:08:19;;;;;;;31.63;20.92;;;;;;;11.49;100.00;102060.81;4979045;28;20081;-62
2023/05/14 03:10:45;;;;;;;38.78;21.63;;;;;;;11.41;100.00;102062.72;4989847;28;20023;-62
2023/05/14 03:13:10;;;;;;;27.77;19.48;;;;;;;11.42;100.00;102065.34;4983751;28;20109;-61
2023/05/14 03:15:35;;;;;;;30.40;19.77;;;;;;;11.36;100.00;102058.41;4985792;28;20626;-62
2023/05/14 03:18:01;;;;;;;30.45;20.33;;;;;;;11.23;100.00;102064.78;4969330;28;20365;-62
2023/05/14 03:20:26;;;;;;;34.10;20.75;;;;;;;11.14;100.00;102071.09;4971174;28;20035;-62
2023/05/14 03:22:51;;;;;;;31.42;20.10;;;;;;;10.99;100.00;102064.31;4968980;28;20382;-62
2023/05/14 03:25:17;;;;;;;29.73;19.20;;;;;;;11.04;100.00;102059.81;4970407;28;20040;-62
2023/05/14 03:27:42;;;;;;;28.25;18.80;;;;;;;11.03;100.00;102055.44;4971500;28;20465;-63
2023/05/14 03:30:08;;;;;;;28.83;19.05;;;;;;;11.06;100.00;102058.03;4974947;28;20477;-65
2023/05/14 03:32:33;;;;;;;34.17;20.58;;;;;;;11.06;100.00;102058.03;4969353;28;20033;-62
2023/05/14 03:34:58;;;;;;;33.72;18.60;;;;;;;11.00;100.00;102052.84;4969853;28;20063;-62
2023/05/14 03:37:24;;;;;;;32.25;19.25;;;;;;;10.85;100.00;102053.97;4987280;28;20019;-65
2023/05/14 03:39:49;;;;;;;33.55;20.15;;;;;;;10.75;100.00;102055.88;4987520;28;20384;-62
2023/05/14 03:42:14;;;;;;;29.40;19.42;;;;;;;10.67;100.00;102055.09;4974723;28;20031;-63
2023/05/14 03:44:40;;;;;;;31.63;19.80;;;;;;;10.61;100.00;102051.69;4969571;28;20139;-62
2023/05/14 03:47:05;;;;;;;32.58;20.90;;;;;;;10.56;100.00;102048.22;4969340;28;20066;-61
2023/05/14 03:49:31;;;;;;;34.33;20.38;;;;;;;10.51;100.00;102042.16;4970052;28;20105;-61
2023/05/14 03:51:58;;;;;;;30.75;19.73;;;;;;;10.56;100.00;102039.44;4966888;28;20100;-62
2023/05/14 03:54:23;;;;;;;35.80;19.92;;;;;;;10.47;100.00;102043.06;5000597;28;20022;-61
2023/05/14 03:56:49;;;;;;;31.65;20.85;;;;;;;10.47;100.00;102037.81;4988639;28;20033;-62
2023/05/14 03:59:14;;;;;;;31.92;20.02;;;;;;;10.45;100.00;102039.56;4981229;28;20027;-61
2023/05/14 04:01:39;;;;;;;34.72;20.25;;;;;;;10.45;100.00;102042.22;4970472;28;20034;-62
2023/05/14 04:04:05;;;;;;;40.80;21.73;;;;;;;10.50;100.00;102045.66;4968198;28;20105;-61
2023/05/14 04:06:31;;;;;;;35.70;22.38;;;;;;;10.56;100.00;102042.94;4969838;28;20043;-61
2023/05/14 04:08:56;;;;;;;37.70;21.77;;;;;;;10.57;100.00;102047.31;4969327;28;20050;-62
2023/05/14 04:11:22;;;;;;;33.13;21.80;;;;;;;10.63;100.00;102045.50;4991191;28;20024;-62
2023/05/14 04:13:47;;;;;;;34.78;22.27;;;;;;;10.68;100.00;102051.56;4968257;28;20026;-62
2023/05/14 04:16:13;;;;;;;36.03;21.45;;;;;;;10.73;100.00;102047.09;4968376;28;20137;-62
2023/05/14 04:18:39;;;;;;;35.40;21.17;;;;;;;10.76;100.00;102049.69;4970608;28;20753;-61
2023/05/14 04:21:04;;;;;;;30.15;19.63;;;;;;;10.80;100.00;102051.38;4967788;28;20027;-59
2023/05/14 04:23:30;;;;;;;33.65;19.45;;;;;;;10.85;100.00;102054.84;4969000;28;20015;-62
2023/05/14 04:25:56;;;;;;;31.00;20.15;;;;;;;10.88;100.00;102048.63;4969148;28;20549;-60
2023/05/14 04:28:21;;;;;;;29.48;19.88;;;;;;;10.90;100.00;102046.88;4967200;28;20026;-61
2023/05/14 04:30:47;;;;;;;28.10;18.77;;;;;;;10.94;100.00;102040.63;4970698;28;20477;-59
2023/05/14 04:33:12;;;;;;;27.55;19.48;;;;;;;10.95;100.00;102050.28;4970713;28;20409;-62
2023/05/14 04:35:38;;;;;;;33.20;19.27;;;;;;;10.99;100.00;102036.13;4968552;28;20062;-62
2023/05/14 04:38:03;;;;;;;32.10;18.67;;;;;;;11.04;100.00;102046.63;4969046;28;20077;-61
2023/05/14 04:40:30;;;;;;;30.50;18.63;;;;;;;11.10;100.00;102049.16;4968608;28;20170;-62
2023/05/14 04:42:55;;;;;;;27.33;18.40;;;;;;;11.12;100.00;102052.66;4968023;28;20022;-62
2023/05/14 04:45:21;;;;;;;26.73;17.52;;;;;;;11.21;100.00;102050.75;4969111;28;20409;-61
2023/05/14 04:47:46;;;;;;;28.02;18.42;;;;;;;11.21;100.00;102045.47;4971742;28;20048;-61
2023/05/14 04:50:12;;;;;;;26.90;19.00;;;;;;;11.30;100.00;102047.06;4976686;28;20014;-63
2023/05/14 04:52:37;;;;;;;30.73;17.40;;;;;;;11.40;100.00;102043.38;4987116;28;20384;-61
2023/05/14 04:55:03;;;;;;;26.08;17.00;;;;;;;11.46;100.00;102048.53;5001443;28;20121;-61
2023/05/14 04:57:28;;;;;;;28.20;17.48;;;;;;;11.50;100.00;102046.72;4987116;28;20528;-61
2023/05/14 04:59:54;;;;;;;25.30;16.45;;;;;;;11.57;100.00;102045.72;4986470;28;20030;-60
2023/05/14 05:02:19;;;;;;;27.52;17.73;;;;;;;11.63;100.00;102048.22;4987017;28;20112;-63
2023/05/14 05:04:46;;;;;;;26.90;17.73;;;;;;;11.66;100.00;102046.44;4983458;28;20023;-62
2023/05/14 05:07:12;;;;;;;27.02;17.02;;;;;;;11.70;100.00;102043.69;4984292;28;20605;-61
2023/05/14 05:09:37;;;;;;;26.10;18.67;;;;;;;11.71;100.00;102049.88;5001891;28;20129;-62
2023/05/14 05:12:03;;;;;;;38.75;19.65;;;;;;;11.66;100.00;102051.69;4985703;28;20463;-61
2023/05/14 05:14:28;;;;;;;24.48;17.70;;;;;;;11.70;100.00;102056.03;4979194;28;20132;-61
2023/05/14 05:16:54;;;;;;;27.15;17.50;;;;;;;11.80;100.00;102065.50;4979386;28;20023;-61
2023/05/14 05:19:19;;;;;;;28.45;18.17;;;;;;;11.86;100.00;102060.09;4980141;28;20034;-64
2023/05/14 05:21:45;;;;;;;25.40;18.35;;;;;;;11.91;100.00;102056.50;4977391;28;20493;-62
2023/05/14 05:24:10;;;;;;;28.88;19.13;;;;;;;11.72;100.00;102052.47;4978851;28;20133;-61
2023/05/14 05:26:35;;;;;;;37.17;18.77;;;;;;;11.78;100.00;102055.88;4987178;28;20117;-61
2023/05/14 05:29:02;;;;;;;31.17;19.67;;;;;;;11.85;100.00;102057.50;4984997;28;20026;-62
2023/05/14 05:31:28;;;;;;;30.27;19.35;;;;;;;11.97;100.00;102057.25;4985561;28;20030;-61
2023/05/14 05:33:53;;;;;;;36.47;20.13;;;;;;;12.07;100.00;102063.25;4983340;28;20018;-60
2023/05/14 05:36:18;;;;;;;32.38;20.35;;;;;;;12.12;100.00;102069.31;4978437;28;20066;-62
2023/05/14 05:38:44;;;;;;;29.08;18.70;;;;;;;12.22;100.00;102066.50;4970856;28;20035;-61
2023/05/14 05:41:09;;;;;;;26.80;19.98;;;;;;;12.27;100.00;102083.09;4968085;28;20038;-60
2023/05/14 05:43:35;;;;;;;36.03;21.50;;;;;;;12.30;100.00;102068.94;4977824;28;20033;-61
2023/05/14 05:46:00;;;;;;;33.35;21.05;;;;;;;12.36;100.00;102080.28;4971511;28;20113;-61
2023/05/14 05:48:26;;;;;;;36.13;21.95;;;;;;;12.41;100.00;102066.97;4975682;28;20023;-61
2023/05/14 05:50:51;;;;;;;33.78;21.67;;;;;;;12.45;100.00;102073.03;4974227;28;20027;-60
2023/05/14 05:53:17;;;;;;;41.58;24.25;;;;;;;12.53;100.00;102076.41;4985049;28;20145;-62
2023/05/14 05:55:42;;;;;;;39.90;23.90;;;;;;;12.59;100.00;102075.38;4985574;28;20022;-62
2023/05/14 05:58:08;;;;;;;46.78;23.90;;;;;;;12.64;100.00;102071.72;4985789;28;20488;-61
2023/05/14 06:00:33;;;;;;;40.60;23.80;;;;;;;12.76;100.00;102077.63;4985774;28;20033;-62
2023/05/14 06:02:58;;;;;;;43.78;25.85;;;;;;;12.80;100.00;102079.31;4985882;28;20095;-61
2023/05/14 06:05:24;;;;;;;43.00;25.88;;;;;;;12.87;100.00;102080.91;4985072;28;20110;-63
2023/05/14 06:07:49;;;;;;;45.03;26.35;;;;;;;12.94;100.00;102091.34;4984704;28;20030;-60
2023/05/14 06:10:15;;;;;;;46.47;24.42;;;;;;;12.99;100.00;102086.78;4985513;28;20053;-62
2023/05/14 06:12:40;;;;;;;45.00;25.00;;;;;;;12.85;100.00;102098.56;4980087;28;20026;-62
2023/05/14 06:15:06;;;;;;;46.25;25.48;;;;;;;13.04;100.00;102089.34;4977926;28;20043;-61
2023/05/14 06:17:31;;;;;;;42.17;26.48;;;;;;;13.10;100.00;102082.09;4985671;28;20018;-62
2023/05/14 06:19:57;;;;;;;41.72;24.23;;;;;;;13.23;100.00;102089.75;4985070;28;20037;-63
2023/05/14 06:22:22;;;;;;;42.10;25.67;;;;;;;13.30;100.00;102083.38;4985059;28;20110;-65
2023/05/14 06:24:47;;;;;;;49.45;25.00;;;;;;;13.14;100.00;102098.78;4985375;28;20018;-63
2023/05/14 06:27:13;;;;;;;39.17;25.13;;;;;;;13.19;100.00;102075.75;4988089;28;20033;-63
2023/05/14 06:29:38;;;;;;;46.05;27.13;;;;;;;13.27;100.00;102097.56;4989755;28;20022;-60
2023/05/14 06:32:04;;;;;;;39.80;25.75;;;;;;;13.45;100.00;102092.72;4988911;28;20041;-62
2023/05/14 06:34:30;;;;;;;38.60;25.05;;;;;;;13.52;100.00;102096.97;4984414;28;20019;-61
2023/05/14 06:36:56;;;;;;;38.70;24.60;;;;;;;13.80;100.00;102081.25;4987646;28;20030;-61
2023/05/14 06:39:21;;;;;;;43.83;24.95;;;;;;;13.95;100.00;102085.25;4989271;28;20096;-63
2023/05/14 06:41:47;;;;;;;40.72;24.27;;;;;;;14.01;100.00;102096.56;4989811;28;20034;-62
2023/05/14 06:44:12;;;;;;;37.55;26.08;;;;;;;13.91;100.00;102081.84;4990510;28;20026;-62
2023/05/14 06:46:37;;;;;;;41.78;26.35;;;;;;;13.61;100.00;102092.34;4990734;28;20117;-61
2023/05/14 06:49:03;;;;;;;43.60;26.35;;;;;;;13.98;100.00;102090.47;4989555;28;20033;-62
2023/05/14 06:51:28;;;;;;;40.25;25.42;;;;;;;14.18;100.00;102081.06;4989284;28;20030;-62
2023/05/14 06:53:54;;;;;;;43.63;25.08;;;;;;;14.10;100.00;102094.53;4977583;28;20080;-62
2023/05/14 06:56:20;;;;;;;39.85;24.70;;;;;;;14.06;100.00;102084.94;4990320;28;20117;-61
2023/05/14 06:58:46;;;;;;;38.20;23.88;;;;;;;14.02;100.00;102076.22;4989717;28;20022;-62
2023/05/14 07:01:11;;;;;;;39.85;24.30;;;;;;;14.08;100.00;102077.81;4990067;28;20561;-62
2023/05/14 07:03:37;;;;;;;41.67;24.48;;;;;;;14.27;100.00;102076.34;4989773;28;20117;-62
2023/05/14 07:06:02;;;;;;;38.15;22.88;;;;;;;14.46;100.00;102078.47;4989300;28;20508;-62
2023/05/14 07:08:27;;;;;;;40.65;23.10;;;;;;;14.26;100.00;102081.72;4989657;28;20045;-62
2023/05/14 07:10:53;;;;;;;36.30;24.00;;;;;;;13.96;100.00;102065.78;4985654;28;20435;-62
2023/05/14 07:13:18;;;;;;;36.58;23.63;;;;;;;14.10;100.00;102068.91;4981491;28;20030;-62
2023/05/14 07:15:43;;;;;;;34.20;21.40;;;;;;;14.39;100.00;102068.97;4987724;28;20104;-61
2023/05/14 07:18:09;;;;;;;31.90;21.27;;;;;;;14.48;100.00;102073.13;4990025;28;20030;-63
2023/05/14 07:20:34;;;;;;;31.48;20.60;;;;;;;15.10;100.00;102070.31;4987653;28;20037;-63
2023/05/14 07:22:59;;;;;;;29.40;20.55;;;;;;;15.22;100.00;102074.31;4989370;28;20072;-62
2023/05/14 07:25:25;;;;;;;30.83;20.02;;;;;;;15.28;100.00;102068.81;4988895;28;20073;-63
2023/05/14 07:27:50;;;;;;;28.52;18.55;;;;;;;15.34;100.00;102078.34;4988669;28;20034;-64
2023/05/14 07:30:15;;;;;;;28.45;19.08;;;;;;;15.52;100.00;102066.22;4989343;28;20054;-62
2023/05/14 07:32:41;;;;;;;26.73;18.85;;;;;;;15.58;100.00;102068.66;4988165;28;20353;-61
2023/05/14 07:35:06;;;;;;;26.30;18.48;;;;;;;15.46;100.00;102066.44;4985853;28;20130;-63
2023/05/14 07:37:32;;;;;;;30.00;18.13;;;;;;;15.66;100.00;102068.41;4976943;28;20488;-62
2023/05/14 07:39:57;;;;;;;22.23;16.83;;;;;;;15.87;100.00;102072.06;4970214;28;20557;-63
2023/05/14 07:42:23;;;;;;;29.70;17.33;;;;;;;16.29;100.00;102062.56;4969777;28;20098;-63
2023/05/14 07:44:50;;;;;;;24.90;16.08;;;;;;;16.32;100.00;102068.69;4969085;28;20027;-62
2023/05/14 07:47:15;;;;;;;25.73;14.82;;;;;;;16.34;100.00;102067.69;4968472;28;20027;-61
2023/05/14 07:49:40;;;;;;;19.67;14.40;;;;;;;16.40;100.00;102070.13;4970934;28;20026;-61
2023/05/14 07:52:06;;;;;;;23.30;14.25;;;;;;;16.15;100.00;102076.41;4980486;28;20030;-61
2023/05/14 07:54:31;;;;;;;20.95;14.57;;;;;;;16.12;100.00;102065.00;4985869;28;20733;-62
2023/05/14 07:56:56;;;;;;;20.33;13.55;;;;;;;15.81;100.00;102064.34;4978168;28;20111;-62
2023/05/14 07:59:22;;;;;;;20.60;13.02;;;;;;;15.94;100.00;102058.53;4984604;28;20089;-62
2023/05/14 08:01:47;;;;;;;17.70;11.38;;;;;;;16.10;100.00;102056.22;4975162;28;20082;-61
2023/05/14 08:04:14;;;;;;;17.65;13.13;;;;;;;15.74;100.00;102054.84;4977714;28;20026;-62
2023/05/14 08:06:40;;;;;;;18.95;12.77;;;;;;;15.76;100.00;102053.00;4978090;28;20022;-62
2023/05/14 08:09:06;;;;;;;20.58;13.23;;;;;;;15.42;100.00;102057.72;4969491;28;20046;-61
2023/05/14 08:11:31;;;;;;;17.70;12.68;;;;;;;15.65;100.00;102050.72;4968016;28;20038;-62
2023/05/14 08:13:56;;;;;;;20.25;15.20;;;;;;;15.70;100.00;102050.53;4977905;28;20038;-62
2023/05/14 08:16:22;;;;;;;23.25;16.33;;;;;;;15.94;100.00;102055.88;4988767;28;20069;-62
2023/05/14 08:18:47;;;;;;;21.35;16.10;;;;;;;15.99;100.00;102049.53;4983902;28;20034;-62
2023/05/14 08:21:13;;;;;;;24.38;17.08;;;;;;;16.19;100.00;102049.69;4976665;28;20025;-62
2023/05/14 08:23:38;;;;;;;27.83;16.95;;;;;;;16.07;100.00;102043.91;4978834;28;20053;-61
2023/05/14 08:26:03;;;;;;;27.73;18.10;;;;;;;16.15;100.00;102048.94;4969579;28;20038;-61
2023/05/14 08:28:29;;;;;;;29.27;16.98;;;;;;;16.21;100.00;102047.81;4979487;28;20420;-62
2023/05/14 08:30:54;;;;;;;30.67;17.52;;;;;;;16.28;100.00;102044.00;4969472;28;20031;-61
2023/05/14 08:33:20;;;;;;;23.75;16.42;;;;;;;16.41;100.00;102047.91;4976776;28;20050;-60
2023/05/14 08:35:45;;;;;;;29.00;15.85;;;;;;;16.51;100.00;102045.75;4986213;28;20062;-61
2023/05/14 08:38:10;;;;;;;27.77;16.45;;;;;;;16.57;100.00;102044.66;4986344;28;20599;-60
2023/05/14 08:40:36;;;;;;;28.80;15.65;;;;;;;16.58;100.00;102042.88;4986127;28;20053;-57
2023/05/14 08:43:01;;;;;;;21.73;14.25;;;;;;;16.70;100.00;102045.00;4982030;28;20397;-60
2023/05/14 08:45:33;;;;;;;22.48;14.45;;;;;;;17.09;100.00;102032.78;4971910;28;20504;-58
2023/05/14 08:47:59;;;;;;;24.65;15.32;;;;;;;17.39;100.00;102034.19;4967390;28;20110;-59
2023/05/14 08:50:25;;;;;;;24.63;15.02;;;;;;;17.12;100.00;102035.34;4965510;28;20027;-58
2023/05/14 08:52:51;;;;;;;22.02;13.75;;;;;;;17.14;100.00;102035.28;4966807;28;20030;-58
2023/05/14 08:55:17;;;;;;;21.75;13.38;;;;;;;17.39;100.00;102036.84;4981689;28;20111;-59
2023/05/14 08:57:43;;;;;;;16.15;10.98;;;;;;;17.73;100.00;102023.84;4969587;28;20117;-62
2023/05/14 09:00:11;;;;;;;20.58;10.27;;;;;;;17.70;100.00;102018.66;4982614;28;20018;-62
2023/05/14 09:02:38;;;;;;;14.45;9.20;;;;;;;17.41;100.00;102017.22;4976332;28;20034;-60
2023/05/14 09:05:06;;;;;;;19.30;8.27;;;;;;;17.19;100.00;102019.97;4993192;28;20027;-62
2023/05/14 09:07:32;;;;;;;13.63;8.52;;;;;;;17.05;100.00;102016.06;4978745;28;20045;-61
2023/05/14 09:09:57;;;;;;;17.95;8.05;;;;;;;17.53;100.00;102018.50;4977934;28;20031;-60
2023/05/14 09:12:23;;;;;;;15.55;8.05;;;;;;;17.41;100.00;102006.56;4976007;28;20023;-59
2023/05/14 09:14:49;;;;;;;13.88;8.10;;;;;;;17.53;100.00;102006.94;4974639;28;20725;-61
2023/05/14 09:17:15;;;;;;;12.13;7.43;;;;;;;17.60;100.00;102008.41;4983406;28;20110;-60
2023/05/14 09:19:42;;;;;;;11.18;7.80;;;;;;;18.04;100.00;102006.44;4975610;28;20068;-63
2023/05/14 09:22:10;;;;;;;16.45;6.93;;;;;;;17.99;100.00;102003.09;4981817;28;20026;-59
2023/05/14 09:24:37;;;;;;;14.95;7.35;;;;;;;17.74;100.00;102004.25;4978924;28;20022;-62
2023/05/14 09:27:03;;;;;;;12.80;6.78;;;;;;;17.82;100.00;102002.06;4972202;28;20476;-63
2023/05/14 09:29:28;;;;;;;18.77;6.88;;;;;;;18.20;100.00;102006.59;4999216;28;20038;-61
2023/05/14 09:31:55;;;;;;;12.10;6.38;;;;;;;18.09;100.00;101998.22;4974764;28;20421;-61
2023/05/14 09:34:29;;;;;;;12.70;6.72;;;;;;;18.46;100.00;101999.13;4976199;28;20034;-62
2023/05/14 09:37:00;;;;;;;11.15;6.65;;;;;;;18.26;100.00;101987.63;4969551;28;20033;-60
2023/05/14 09:39:26;;;;;;;11.95;6.47;;;;;;;18.16;100.00;101992.56;4977226;28;20303;-61
2023/05/14 09:41:51;;;;;;;14.23;7.13;;;;;;;17.88;100.00;101985.81;4973062;28;20125;-63
2023/05/14 09:44:19;;;;;;;15.52;7.18;;;;;;;17.96;100.00;101993.44;4986762;28;20125;-63
2023/05/14 09:46:45;;;;;;;12.25;6.35;;;;;;;18.48;100.00;101989.22;4986217;28;20046;-62
2023/05/14 09:49:11;;;;;;;11.90;5.75;;;;;;;18.53;100.00;101989.00;4984596;28;20105;-64
2023/05/14 09:51:37;;;;;;;9.65;5.55;;;;;;;18.78;98.10;101985.13;4985052;28;20117;-61
2023/05/14 09:54:03;;;;;;;12.40;6.90;;;;;;;18.46;98.92;101985.78;4984243;28;20118;-63
2023/05/14 09:56:29;;;;;;;12.23;6.07;;;;;;;18.81;96.38;101984.94;4983161;28;20033;-62
2023/05/14 09:58:54;;;;;;;13.40;6.85;;;;;;;18.97;97.65;101973.50;4974491;28;20031;-61
2023/05/14 10:01:21;;;;;;;17.77;7.70;;;;;;;19.07;99.19;101974.75;4967882;28;20027;-61
2023/05/14 10:03:47;;;;;;;13.85;6.60;;;;;;;19.43;99.02;101976.44;4969065;28;20173;-62
2023/05/14 10:06:15;;;;;;;15.90;7.43;;;;;;;19.67;100.00;101980.53;4988894;28;20066;-65
2023/05/14 10:08:43;;;;;;;14.38;7.80;;;;;;;19.82;100.00;101979.72;4988716;28;20113;-61
2023/05/14 10:11:21;;;;;;;20.43;8.23;;;;;;;19.78;100.00;101975.47;4976523;28;20117;-63
2023/05/14 10:13:55;;;;;;;16.45;7.60;;;;;;;19.98;100.00;101969.97;4988613;28;20082;-63
2023/05/14 10:16:27;;;;;;;17.40;7.53;;;;;;;19.84;99.21;101976.94;4982174;28;20042;-64
2023/05/14 10:18:55;;;;;;;19.02;7.60;;;;;;;20.05;99.47;101971.38;4987233;28;20098;-62
2023/05/14 10:21:21;;;;;;;12.70;7.43;;;;;;;19.92;100.00;101961.34;4984465;28;20017;-63
2023/05/14 10:23:47;;;;;;;21.35;7.82;;;;;;;20.09;100.00;101972.94;4976452;28;20469;-64
2023/05/14 10:26:12;;;;;;;16.55;7.22;;;;;;;20.23;100.00;101974.84;4980384;28;20377;-62
2023/05/14 10:28:38;;;;;;;16.20;7.15;;;;;;;20.40;100.00;101978.31;4977962;28;20069;-62
2023/05/14 10:31:03;;;;;;;18.42;6.78;;;;;;;20.51;98.84;101975.03;4979687;28;20018;-63
2023/05/14 10:33:28;;;;;;;14.20;6.13;;;;;;;20.60;99.37;101962.91;4981886;28;20064;-63
2023/05/14 10:36:04;;;;;;;12.52;6.25;;;;;;;20.66;98.52;101955.41;4977565;28;20026;-63
2023/05/14 10:38:37;;;;;;;15.15;6.20;;;;;;;20.99;96.15;101960.66;4980422;28;20034;-62
2023/05/14 10:41:16;;;;;;;19.10;6.30;;;;;;;21.10;96.28;101957.34;4981273;28;20565;-64
2023/05/14 10:43:42;;;;;;;13.25;6.03;;;;;;;21.05;95.22;101968.31;4979342;28;20362;-62
2023/05/14 10:46:09;;;;;;;15.82;6.35;;;;;;;21.13;94.11;101951.78;4981993;28;20029;-62
2023/05/14 10:48:36;;;;;;;19.35;5.97;;;;;;;21.29;94.16;101946.34;4980585;28;20066;-64
2023/05/14 10:51:01;;;;;;;13.93;5.90;;;;;;;21.37;93.73;101941.34;4978206;28;20085;-64
2023/05/14 10:53:35;;;;;;;14.60;5.90;;;;;;;21.53;93.34;101943.06;4981416;28;20027;-64
2023/05/14 10:56:08;;;;;;;16.83;6.60;;;;;;;21.26;94.97;101939.34;4983374;28;20041;-64
2023/05/14 10:58:38;;;;;;;15.95;5.72;;;;;;;21.43;93.75;101946.31;4984579;28;20488;-63
2023/05/14 11:01:05;;;;;;;16.63;5.90;;;;;;;21.74;91.95;101935.47;4981240;28;20047;-63